LFQQ/LIL METAR and TAF weather

Enter ICAO airport designator
Station Type Date Time Source
LFQQ METAR 2018/10/16 14:00 UTC NOAA

LFQQ 161400Z AUTO 13006KT 090V150 CAVOK 24/10 Q1017 NOSIG


Station Type Date Time Source
LFQQ Decoded METAR 2018/10/16 14:00 UTC NOAA

Lille, France (LFQQ) 50-34N 003-06E 52M
Oct 16, 2018 - 10:00 AM EDT / 2018.10.16 1400 UTC
Wind: from the SE (130 degrees) at 7 MPH (6 KT) (direction variable):0
Visibility: greater than 7 mile(s):0
Temperature: 75 F (24 C)
Dew Point: 50 F (10 C)
Relative Humidity: 41%
Pressure (altimeter): 30.03 in. Hg (1017 hPa)
ob: LFQQ 161400Z AUTO 13006KT 090V150 CAVOK 24/10 Q1017 NOSIG
cycle: 14

Station Type Date Time Source
LFQQ TAF 2018/10/16 12:21 UTC NOAA

TAF LFQQ 161100Z 1612/1718 18008KT CAVOK
BECMG 1617/1620 VRB02KT
BECMG 1623/1702 3000 BR PROB30
TEMPO 1702/1706 0200 FG VV///
BECMG 1706/1709 9999 NSW


Example: see airport list